Tiempo atmosférico en la estación meteorológica de Castellote, Teruel (755 m.)



Fecha
DESCASC
Temp. máxima en grados centígrados (hora)
DESCASC
Temp. mínima en grados centígrados (hora)
DESCASC
Temp. media en grados centígrados
DESCASC
Racha de viento máxima en m/sg (hora)
DESCASC
Velocidad máxima media en intervalos de 10 minutos(hora)
DESCASC
Precipitaciones diarias en mm
DESCASC
Precipitaciones de 00:00 a 06:00 en mm
DESCASC
Precipitaciones de 06:00 a 12:00 en mm
DESCASC
Precipitaciones de 12:00 a 18:00 en mm
DESCASC
Precipitaciones de 18:00 a 24:00 en mm
DESCASC
18-04-2019 16.2 (14:40) 9.5 (05:10) 12.9 13.33 (18:50) 9.17 (23:10) 0.2 0 0 0 0.2
17-04-2019 20.8 (16:30) 8 (06:10) 14.4 11.39 (15:10) 6.39 (21:10) 0 0 0 0 0
16-04-2019 19.1 (17:00) 8.5 (00:00) 13.8 9.72 (14:30) 4.44 (14:30) 1.6 1.6 0 0 0
15-04-2019 20.6 (16:10) 10.1 (00:00) 15.4 11.39 (23:50) 6.39 (15:30) 0 0 0 0 0
14-04-2019 23.1 (17:40) 9.2 (00:00) 16.2 11.11 (14:30) 6.39 (20:40) 0 0 0 0 0
13-04-2019 20.3 (17:20) 3.5 (00:00) 11.9 11.11 (17:30) 5 (16:10) 0 0 0 0 0
12-04-2019 15.6 (17:50) 6 (00:00) 10.8 15.28 (02:40) 6.67 (16:10) 0 0 0 0 0
11-04-2019 13.1 (16:40) 5.5 (00:00) 9.3 16.11 (21:50) 7.78 (00:10) 0 0 0 0 0
10-04-2019 12.8 (17:10) 6.4 (00:00) 9.6 15.28 (23:59) 9.44 (23:59) 0 0 0 0 0
09-04-2019 15.1 (17:30) 6.7 (00:00) 10.9 15 (20:30) 10.28 (21:30) 0.2 0 0 0 0.2
08-04-2019 15.4 (16:10) 6.4 (00:00) 10.9 13.33 (16:40) 5.28 (16:40) 2.2 0.2 0.2 1.2 0.6
07-04-2019 13.5 (18:20) 4.5 (00:00) 9 13.89 (12:40) 7.22 (13:10) 0 0 0 0 0
06-04-2019 11.6 (15:50) 4.5 (00:00) 8.1 17.22 (20:30) 12.5 (20:30) 0 0 0 0 0
05-04-2019 14.5 (14:30) 5.4 (00:00) 10 11.39 (23:00) 7.5 (22:40) 2.4 0 0 2.4 0
04-04-2019 14 (17:10) 0.7 (00:00) 7.3 9.17 (11:00) 4.72 (19:00) 0 0 0 0 0
03-04-2019 9.4 (00:00) 2.7 (21:30) 6 15.28 (21:20) 6.94 (21:20) 2.4 0 0 1.2 1.2
02-04-2019 15.8 (16:50) 8.1 (00:00) 12 12.22 (19:10) 6.11 (19:10) 0.2 0 0 0 0.2
01-04-2019 13.4 (16:50) 6 (00:00) 9.7 5.83 (15:30) 3.33 (15:10) 4.8 3 1.6 0.2 0
31-03-2019 8.9 (15:20) 4.6 (00:00) 6.7 5.28 (16:50) 3.33 (16:40) 10.2 0 0 5.6 4.6
30-03-2019 17.4 (15:30) 3 (00:00) 10.2 9.72 (15:00) 4.72 (13:50) 0 0 0 0 0
29-03-2019 16.4 (13:30) 4 (00:00) 10.2 10.83 (12:10) 6.39 (10:50) 0 0 0 0 0
28-03-2019 18 (16:50) 2.9 (00:00) 10.5 8.89 (14:30) 5.28 (14:30) 0 0 0 0 0
27-03-2019 17.6 (14:50) 1.8 (00:00) 9.7 10.28 (15:50) 5.83 (15:10) 0 0 0 0 0
26-03-2019 17.3 (16:00) 4.3 (00:00) 10.8 12.22 (04:30) 5.28 (05:00) 0 0 0 0 0
25-03-2019 17.3 (16:10) 5.7 (00:00) 11.5 11.94 (12:50) 5.83 (13:30) 0 0 0 0 0
24-03-2019 21 (15:00) 5.1 (00:00) 13 9.17 (14:00) 4.72 (15:50) 0 0 0 0 0
23-03-2019 19.5 (17:20) 4.2 (00:00) 11.8 10 (13:50) 4.17 (13:50) 0 0 0 0 0
22-03-2019 17.3 (15:40) 1.9 (00:00) 9.6 9.44 (16:00) 4.44 (16:00) 0 0 0 0 0
21-03-2019 14.4 (15:10) 0.2 (00:00) 7.3 9.72 (15:30) 5 (17:10) 0 0 0 0 0

Gráficas

Temp. máximas Temp. mínimas Temp. medias Precipitaciones Rachas de viento máximas Velocidades máximas media en intervalos de 10 minutos

Datos horarios

Fecha y hora oficial Temperatura (ºC) Velocidad del viento (km/h) Dirección del viento Racha (km/h) Dirección de racha Precipitación (mm) Presión (hPa) Tendencia (hPa) Humedad (%)
2019-04-19 23:00:00 11.5 10 Nordeste 29 Este 0 -- -- 64
2019-04-19 22:00:00 11.7 11 Este 27 Este 0 -- -- 61
2019-04-19 21:00:00 11.8 9 Este 46 Este 0 -- -- 60
2019-04-19 20:00:00 12.2 20 Este 52 Este 0 -- -- 57
2019-04-19 19:00:00 13.2 28 Este 50 Este 0 -- -- 57
2019-04-19 18:00:00 13.7 24 Este 51 Este 0 -- -- 57
2019-04-19 17:00:00 13.8 20 Este 43 Nordeste 0 -- -- 57
2019-04-19 16:00:00 13.1 29 Este 57 Nordeste 0 -- -- 60
2019-04-19 15:00:00 11.4 3 Sudoeste 14 Nordeste 0 -- -- 77
2019-04-19 14:00:00 10.3 4 Nordeste 30 Nordeste 0 -- -- 81
2019-04-19 13:00:00 9.8 9 Nordeste 22 Nordeste 0 -- -- 87
2019-04-19 12:00:00 9.5 17 Nordeste 36 Este 0.4 -- -- 91
2019-04-19 11:00:00 9.6 13 Nordeste 30 Este 0.6 -- -- 95
2019-04-19 10:00:00 9.5 11 Nordeste 23 Nordeste 0.4 -- -- 95
2019-04-19 09:00:00 9.6 9 Nordeste 24 Norte 0.2 -- -- 95
2019-04-19 08:00:00 9.4 7 Nordeste 24 Nordeste 0 -- -- 95
2019-04-19 07:00:00 9.7 5 Nordeste 16 Sudeste 0.2 -- -- 95
2019-04-19 06:00:00 9.6 7 Este 24 Este 0.6 -- -- 94
2019-04-19 05:00:00 9.6 6 Nordeste 24 Nordeste 0.4 -- -- 93
2019-04-19 04:00:00 9.5 8 Nordeste 22 Norte 2.6 -- -- 92
2019-04-19 03:00:00 9.8 3 Este 19 Este 2 -- -- 91
2019-04-19 02:00:00 9.9 10 Nordeste 27 Nordeste 0.2 -- -- 89
2019-04-19 01:00:00 10.1 9 Nordeste 27 Nordeste 0 -- -- 87
2019-04-19 00:00:00 10.1 13 Este 48 Este 0.2 -- -- 88
2019-04-18 23:00:00 10.9 19 Este 45 Este 0 -- -- 82
2019-04-18 22:00:00 11.1 14 Este 41 Sudeste 0 -- -- 80
2019-04-18 21:00:00 11.3 15 Sur 35 Sudoeste 0 -- -- 77
2019-04-18 20:00:00 11.4 12 Sur 32 Nordeste 0 -- -- 75
2019-04-18 19:00:00 12.1 11 Sudeste 48 Este 0 -- -- 69
2019-04-18 18:00:00 13 11 Sur 30 Sur 0 -- -- 63
2019-04-18 17:00:00 13.7 18 Sur 42 Sur 0 -- -- 58
2019-04-18 16:00:00 15.9 16 Este 33 Este 0 -- -- 46
2019-04-18 15:00:00 15.8 22 Este 42 Este 0 -- -- 46
2019-04-18 14:00:00 16.1 15 Este 34 Este 0 -- -- 49
2019-04-18 13:00:00 15.2 14 Este 31 Sur 0 -- -- 51
2019-04-18 12:00:00 13.1 15 Sudeste 24 Sur 0 -- -- 59
2019-04-18 11:00:00 12.2 5 Sur 14 Este 0 -- -- 70
2019-04-18 10:00:00 10.9 5 Sudeste 21 Este 0 -- -- 75
2019-04-18 09:00:00 10.1 14 Este 26 Este 0 -- -- 79
2019-04-18 08:00:00 9.9 11 Sur 21 Sur 0 -- -- 81
2019-04-18 07:00:00 9.9 10 Sur 19 Sur 0 -- -- 78
2019-04-18 06:00:00 9.5 8 Sur 19 Sur 0 -- -- 73
2019-04-18 05:00:00 9.6 9 Sur 20 Sur 0 -- -- 74
2019-04-18 04:00:00 9.9 11 Sudoeste 19 Sudoeste 0 -- -- 68
2019-04-18 03:00:00 10 9 Sur 16 Sur 0 -- -- 67
2019-04-18 02:00:00 10.2 9 Este 26 Sudeste 0 -- -- 65
2019-04-18 01:00:00 12.5 16 Este 32 Este 0 -- -- 47
2019-04-18 00:00:00 11.6 9 Este 29 Sur 0 -- -- 60
2019-04-17 23:00:00 11.4 10 Este 23 Sudeste 0 -- -- 67
2019-04-17 22:00:00 12.5 9 Sudeste 40 Sur 0 -- -- 65
2019-04-17 21:00:00 13.6 16 Sur 36 Sudeste 0 -- -- 64
2019-04-17 20:00:00 15.9 10 Sur 23 Sur 0 -- -- 58
2019-04-17 19:00:00 17.2 11 Sudeste 30 Sudoeste 0 -- -- 55
2019-04-17 18:00:00 18.5 16 Sur 28 Sudoeste 0 -- -- 48
2019-04-17 17:00:00 20.5 14 Sur 27 Nordeste 0 -- -- 43
2019-04-17 16:00:00 19.9 15 Este 41 Este 0 -- -- 44
2019-04-17 15:00:00 19.6 19 Este 34 Este 0 -- -- 44
2019-04-17 14:00:00 19.7 15 Este 33 Este 0 -- -- 43
2019-04-17 13:00:00 18.3 13 Sudeste 30 Este 0 -- -- 48
2019-04-17 12:00:00 16.3 10 Este 21 Este 0 -- -- 53
2019-04-17 11:00:00 14.3 9 Sur 21 Sur 0 -- -- 57
2019-04-17 10:00:00 12.3 7 Sudeste 14 Sudeste 0 -- -- 61
2019-04-17 09:00:00 10.4 5 Sudeste 11 Sudeste 0 -- -- 66
2019-04-17 08:00:00 8.2 7 Sur 19 Sudeste 0 -- -- 74
2019-04-17 07:00:00 8.4 10 Sudoeste 21 Sudoeste 0 -- -- 72
2019-04-17 06:00:00 8.1 6 Sur 19 Sudeste 0 -- -- 74
2019-04-17 05:00:00 8.5 10 Sur 17 Sur 0 -- -- 71
2019-04-17 04:00:00 8.5 8 Sudeste 16 Este 0 -- -- 66
2019-04-17 03:00:00 8.5 6 Sur 19 Sudeste 0 -- -- 74
2019-04-17 02:00:00 8.8 10 Sudeste 22 Sur 0 -- -- 70
2019-04-17 01:00:00 9.6 9 Sur 18 Sur 0 -- -- 78
2019-04-17 00:00:00 10.1 9 Sudeste 22 Sudeste 0 -- -- 78
2019-04-16 23:00:00 10.6 7 Sudeste 18 Este 0 -- -- 73
2019-04-16 22:00:00 10.9 9 Sudeste 20 Este 0 -- -- 71
2019-04-16 21:00:00 11.9 9 Sudeste 20 Sudeste 0 -- -- 71
2019-04-16 20:00:00 13.3 10 Sudeste 22 Este 0 -- -- 68
2019-04-16 19:00:00 14.9 10 Sudeste 32 Sudeste 0 -- -- 63
2019-04-16 18:00:00 17.1 11 Este 27 Este 0 -- -- 55
2019-04-16 17:00:00 19.1 6 Nordeste 20 Este 0 -- -- 42
2019-04-16 16:00:00 18 9 Este 23 Este 0 -- -- 46
2019-04-16 15:00:00 16.4 10 Nordeste 35 Este 0 -- -- 55
2019-04-16 14:00:00 14.9 10 Este 23 Este 0 -- -- 58
2019-04-16 13:00:00 14.1 5 Sudoeste 23 Noroeste 0 -- -- 60
2019-04-16 12:00:00 13.5 6 Sur 21 Oeste 0 -- -- 66
2019-04-16 11:00:00 11.9 3 Sudoeste 19 Noroeste 0 -- -- 73
2019-04-16 10:00:00 9.9 8 Oeste 16 Oeste 0 -- -- 81
2019-04-16 09:00:00 9.2 3 Nordeste 27 Noroeste 0 -- -- 86
2019-04-16 08:00:00 8.8 5 Sudeste 12 Norte 0 -- -- 89
2019-04-16 07:00:00 8.8 4 Norte 14 Oeste 0 -- -- 89
2019-04-16 06:00:00 8.5 4 Noroeste 15 Noroeste 0 -- -- 93
2019-04-16 05:00:00 8.5 0 Calma 18 Norte 0.2 -- -- 93
2019-04-16 04:00:00 8.6 0 Calma 16 Norte 1.4 -- -- 91
2019-04-16 03:00:00 9.2 3 Noroeste 17 Norte 0 -- -- 84
2019-04-16 02:00:00 10.3 4 Sudeste 27 Norte 0 -- -- 78
2019-04-16 01:00:00 15.7 7 Oeste 25 Noroeste 0 -- -- 57
2019-04-16 00:00:00 15.9 13 Oeste 41 Oeste 0 -- -- 54
2019-04-15 23:00:00 12 13 Sur 21 Sur 0 -- -- 64
2019-04-15 22:00:00 11.6 7 Sudeste 25 Este 0 -- -- 65
2019-04-15 21:00:00 12.5 12 Este 22 Este 0 -- -- 60
2019-04-15 20:00:00 14 8 Sudeste 26 Este 0 -- -- 54
2019-04-15 19:00:00 15.7 14 Este 25 Nordeste 0 -- -- 49
2019-04-15 18:00:00 17.2 16 Sudeste 39 Sur 0 -- -- 46
2019-04-15 17:00:00 18.5 15 Sudeste 37 Este 0 -- -- 44
2019-04-15 16:00:00 20 17 Sudeste 35 Sur 0 -- -- 41
2019-04-15 15:00:00 20 15 Sudeste 35 Este 0 -- -- 46
2019-04-15 14:00:00 20.5 15 Sudeste 31 Sudeste 0 -- -- 43
2019-04-15 13:00:00 19.7 10 Sudeste 23 Sudeste 0 -- -- 44
2019-04-15 12:00:00 18.6 9 Sudeste 21 Este 0 -- -- 48
2019-04-15 11:00:00 16.4 8 Sudeste 19 Este 0 -- -- 51
2019-04-15 10:00:00 14.4 9 Sur 17 Sur 0 -- -- 62
2019-04-15 09:00:00 12.3 4 Sur 11 Este 0 -- -- 69
2019-04-15 08:00:00 10.1 4 Sudeste 9 Este 0 -- -- 76
2019-04-15 07:00:00 10.3 5 Este 8 Este 0 -- -- 75
2019-04-15 06:00:00 10.8 3 Este 6 Este 0 -- -- 72
2019-04-15 05:00:00 11.5 3 Este 8 Este 0 -- -- 70
2019-04-15 04:00:00 11.8 6 Este 10 Este 0 -- -- 69
2019-04-15 03:00:00 13.4 3 Nordeste 5 Este 0 -- -- 64
2019-04-15 02:00:00 13.7 4 Sudoeste 12 Oeste 0 -- -- 62
2019-04-15 01:00:00 15.4 8 Oeste 15 Noroeste 0 -- -- 59
2019-04-15 00:00:00 16.4 5 Oeste 9 Este 0 -- -- 54
2019-04-14 23:00:00 16.6 6 Este 15 Oeste 0 -- -- 52
2019-04-14 22:00:00 18 9 Oeste 36 Noroeste 0 -- -- 48
2019-04-14 21:00:00 18.6 18 Noroeste 36 Noroeste 0 -- -- 46
2019-04-14 20:00:00 20.1 6 Sudeste 25 Nordeste 0 -- -- 43
2019-04-14 19:00:00 21.9 7 Sudeste 22 Sudoeste 0 -- -- 39
2019-04-14 18:00:00 22.6 11 Noroeste 33 Oeste 0 -- -- 39
2019-04-14 17:00:00 22.6 8 Oeste 37 Noroeste 0 -- -- 38
2019-04-14 16:00:00 22.4 22 Noroeste 40 Noroeste 0 -- -- 37
2019-04-14 15:00:00 21.2 21 Noroeste 40 Oeste 0 -- -- 39
2019-04-14 14:00:00 20.8 13 Noroeste 32 Norte 0 -- -- 40
2019-04-14 13:00:00 19.4 12 Noroeste 37 Noroeste 0 -- -- 41
2019-04-14 12:00:00 18.1 9 Oeste 31 Noroeste 0 -- -- 45
2019-04-14 11:00:00 17.5 13 Noroeste 39 Noroeste 0 -- -- 43
2019-04-14 10:00:00 15.3 6 Sudoeste 25 Oeste 0 -- -- 45
2019-04-14 09:00:00 12.1 8 Este 14 Este 0 -- -- 38
2019-04-14 08:00:00 10.6 3 Este 6 Oeste 0 -- -- 34
2019-04-14 07:00:00 10 4 Sur 8 Sur 0 -- -- 35
2019-04-14 06:00:00 10 3 Este 7 Este 0 -- -- 31
2019-04-14 05:00:00 9.9 3 Este 10 Nordeste 0 -- -- 31
2019-04-14 04:00:00 9.8 3 Nordeste 10 Este 0 -- -- 31
2019-04-14 03:00:00 9.3 3 Este 9 Nordeste 0 -- -- 32
2019-04-14 02:00:00 9.5 6 Este 14 Este 0 -- -- 33
2019-04-14 01:00:00 10.1 5 Este 9 Este 0 -- -- 32
2019-04-14 00:00:00 11.3 5 Sudeste 7 Sudeste 0 -- -- 29
2019-04-13 23:00:00 12.7 3 Sudeste 6 Este 0 -- -- 26
2019-04-13 22:00:00 14.1 3 Nordeste 15 Oeste 0 -- -- 21
2019-04-13 21:00:00 15.9 6 Noroeste 14 Oeste 0 -- -- 17
2019-04-13 20:00:00 18 2 Sudeste 37 Oeste 0 -- -- 19
2019-04-13 19:00:00 19.1 10 Sudoeste 31 Oeste 0 -- -- 18
2019-04-13 18:00:00 19.9 13 Oeste 40 Noroeste 0 -- -- 17
2019-04-13 17:00:00 19.8 11 Oeste 35 Este 0 -- -- 15
2019-04-13 16:00:00 19.4 13 Este 35 Nordeste 0 -- -- 22
2019-04-13 15:00:00 18.8 13 Este 24 Este 0 -- -- 24
2019-04-13 14:00:00 17.9 7 Sudoeste 22 Sudoeste 0 -- -- 24
2019-04-13 13:00:00 16 9 Este 20 Este 0 -- -- 31
2019-04-13 12:00:00 14.6 7 Sudeste 16 Este 0 -- -- 32
2019-04-13 11:00:00 12.2 7 Sudeste 13 Este 0 -- -- 42
2019-04-13 10:00:00 9.1 5 Este 13 Este 0 -- -- 56
2019-04-13 09:00:00 6 6 Este 10 Este 0 -- -- 63
2019-04-13 08:00:00 3.6 3 Este 10 Este 0 -- -- 71
2019-04-13 07:00:00 3.6 6 Este 9 Este 0 -- -- 71
2019-04-13 06:00:00 4.3 7 Este 10 Este 0 -- -- 68
2019-04-13 05:00:00 5 4 Este 12 Este 0 -- -- 65
2019-04-13 04:00:00 6.8 5 Este 17 Oeste 0 -- -- 56
2019-04-13 03:00:00 7.8 5 Este 13 Noroeste 0 -- -- 53
2019-04-13 02:00:00 8.4 2 Sudeste 12 Nordeste 0 -- -- 52
2019-04-13 01:00:00 8.6 3 Sudeste 14 Este 0 -- -- 51
2019-04-13 00:00:00 9.3 8 Sudeste 23 Este 0 -- -- 50
2019-04-12 23:00:00 10 6 Sur 18 Oeste 0 -- -- 48
2019-04-12 22:00:00 11.1 4 Noroeste 13 Noroeste 0 -- -- 46
2019-04-12 21:00:00 12.3 6 Noroeste 23 Noroeste 0 -- -- 42
2019-04-12 20:00:00 14.3 12 Noroeste 30 Noroeste 0 -- -- 36
2019-04-12 19:00:00 15.4 15 Noroeste 39 Noroeste 0 -- -- 35
2019-04-12 18:00:00 15.5 20 Oeste 46 Noroeste 0 -- -- 35
2019-04-12 17:00:00 15.2 20 Noroeste 49 Noroeste 0 -- -- 38
2019-04-12 16:00:00 15 17 Oeste 38 Noroeste 0 -- -- 41
2019-04-12 15:00:00 13.9 18 Noroeste 38 Noroeste 0 -- -- 41
2019-04-12 14:00:00 12.6 20 Oeste 42 Noroeste 0 -- -- 48
2019-04-12 13:00:00 12.4 14 Noroeste 40 Noroeste 0 -- -- 51
2019-04-12 12:00:00 10.3 17 Oeste 41 Oeste 0 -- -- 57
2019-04-12 11:00:00 8.7 22 Oeste 50 Noroeste 0 -- -- 63
2019-04-12 10:00:00 7.8 15 Oeste 40 Noroeste 0 -- -- 68
2019-04-12 09:00:00 6.7 15 Oeste 41 Oeste 0 -- -- 72
2019-04-12 08:00:00 6 15 Oeste 42 Noroeste 0 -- -- 75
2019-04-12 07:00:00 6 6 Este 35 Oeste 0 -- -- 74
2019-04-12 06:00:00 6 12 Oeste 33 Oeste 0 -- -- 73
2019-04-12 05:00:00 6.1 11 Oeste 42 Noroeste 0 -- -- 73
2019-04-12 04:00:00 6.2 7 Sudoeste 28 Noroeste 0 -- -- 72
2019-04-12 03:00:00 6.2 9 Norte 55 Norte 0 -- -- 71
2019-04-12 02:00:00 6.3 11 Sudeste 43 Noroeste 0 -- -- 71
2019-04-12 01:00:00 6.5 17 Oeste 50 Oeste 0 -- -- 69
2019-04-12 00:00:00 7 17 Noroeste 41 Noroeste 0 -- -- 71
2019-04-11 23:00:00 7.5 19 Oeste 50 Oeste 0 -- -- 68
2019-04-11 22:00:00 8.3 24 Oeste 58 Noroeste 0 -- -- 65
2019-04-11 21:00:00 8.9 21 Oeste 45 Oeste 0 -- -- 63
2019-04-11 20:00:00 10 17 Oeste 46 Oeste 0 -- -- 55
2019-04-11 19:00:00 11.4 18 Noroeste 49 Norte 0 -- -- 53
2019-04-11 18:00:00 12 21 Noroeste 48 Noroeste 0 -- -- 51
2019-04-11 17:00:00 13.1 26 Noroeste 50 Oeste 0 -- -- 46
2019-04-11 16:00:00 12.5 22 Oeste 46 Oeste 0 -- -- 48
2019-04-11 15:00:00 11.9 21 Noroeste 48 Norte 0 -- -- 48
2019-04-11 14:00:00 10.8 20 Noroeste 48 Norte 0 -- -- 52
2019-04-11 13:00:00 9.9 24 Noroeste 55 Noroeste 0 -- -- 55
2019-04-11 12:00:00 9.3 14 Oeste 55 Oeste 0 -- -- 55
2019-04-11 11:00:00 7.9 14 Oeste 51 Noroeste 0 -- -- 63
2019-04-11 10:00:00 7.4 20 Oeste 48 Noroeste 0 -- -- 67
2019-04-11 09:00:00 6.3 22 Oeste 48 Oeste 0 -- -- 72
2019-04-11 08:00:00 5.5 18 Oeste 42 Oeste 0 -- -- 76
2019-04-11 07:00:00 5.5 16 Oeste 40 Oeste 0 -- -- 75
2019-04-11 06:00:00 5.6 11 Oeste 49 Norte 0 -- -- 75
2019-04-11 05:00:00 5.8 8 Sudoeste 40 Sudoeste 0 -- -- 74
2019-04-11 04:00:00 6 12 Oeste 40 Noroeste 0 -- -- 74
2019-04-11 03:00:00 6.3 18 Oeste 45 Sudoeste 0 -- -- 74
2019-04-11 02:00:00 6.7 11 Oeste 40 Norte 0 -- -- 72
2019-04-11 01:00:00 6.9 9 Nordeste 48 Noroeste 0 -- -- 72
2019-04-11 00:00:00 7.5 34 Oeste 55 Oeste 0 -- -- 69
2019-04-10 23:00:00 8.9 12 Oeste 31 Oeste 0 -- -- 65
2019-04-10 22:00:00 9.5 11 Noroeste 28 Noroeste 0 -- -- 61
2019-04-10 21:00:00 9.9 10 Noroeste 22 Noroeste 0 -- -- 61
2019-04-10 20:00:00 9 4 Oeste 18 Oeste 0 -- -- 66
2019-04-10 19:00:00 9.4 13 Oeste 32 Oeste 0 -- -- 63
2019-04-10 18:00:00 9.2 22 Oeste 50 Noroeste 0 -- -- 66
2019-04-10 17:00:00 12.4 11 Oeste 32 Oeste 0 -- -- 50
2019-04-10 16:00:00 10.8 8 Oeste 35 Noroeste 0 -- -- 57
2019-04-10 15:00:00 10.3 17 Noroeste 36 Noroeste 0 -- -- 56
2019-04-10 14:00:00 10.1 15 Noroeste 39 Noroeste 0 -- -- 55
2019-04-10 13:00:00 10.4 16 Noroeste 42 Oeste 0 -- -- 56
2019-04-10 12:00:00 9.2 23 Oeste 41 Noroeste 0 -- -- 58
2019-04-10 11:00:00 8.9 14 Oeste 44 Oeste 0 -- -- 61
2019-04-10 10:00:00 8.9 11 Oeste 33 Oeste 0 -- -- 60
2019-04-10 09:00:00 7 9 Oeste 24 Noroeste 0 -- -- 69
2019-04-10 08:00:00 6.8 10 Oeste 28 Noroeste 0 -- -- 71
2019-04-10 07:00:00 6.4 5 Sudoeste 23 Oeste 0 -- -- 73
2019-04-10 06:00:00 6.7 6 Oeste 25 Norte 0 -- -- 71
2019-04-10 05:00:00 6.7 5 Sur 31 Noroeste 0 -- -- 71
2019-04-10 04:00:00 6.9 5 Sudoeste 31 Noroeste 0 -- -- 69
2019-04-10 03:00:00 7.4 6 Sur 36 Noroeste 0 -- -- 69
2019-04-10 02:00:00 7.6 9 Oeste 27 Noroeste 0 -- -- 70
2019-04-10 01:00:00 7.8 13 Oeste 36 Oeste 0 -- -- 68
2019-04-10 00:00:00 7.8 19 Oeste 41 Oeste 0 -- -- 68
2019-04-09 23:00:00 7.6 17 Oeste 44 Sudoeste 0 -- -- 68
2019-04-09 22:00:00 7.6 14 Oeste 53 Oeste 0 -- -- 67
2019-04-09 21:00:00 8 33 Sudoeste 54 Sudoeste 0 -- -- 64
2019-04-09 20:00:00 9.3 21 Sudoeste 37 Sudoeste 0 -- -- 59
2019-04-09 19:00:00 11.6 24 Sudoeste 50 Noroeste 0.2 -- -- 51
2019-04-09 18:00:00 12.7 21 Oeste 44 Oeste 0 -- -- 52
2019-04-09 17:00:00 13.1 6 Norte 44 Oeste 0 -- -- 44
2019-04-09 16:00:00 13.2 10 Noroeste 39 Oeste 0 -- -- 46
2019-04-09 15:00:00 13.5 17 Sudoeste 33 Oeste 0 -- -- 41
2019-04-09 14:00:00 13.4 8 Sudoeste 36 Sudoeste 0 -- -- 44
2019-04-09 13:00:00 13.5 10 Sudoeste 36 Sudoeste 0 -- -- 44
2019-04-09 12:00:00 12 12 Sudoeste 40 Sudoeste 0 -- -- 51
2019-04-09 11:00:00 10.3 13 Oeste 40 Oeste 0 -- -- 56
2019-04-09 10:00:00 9.2 19 Oeste 36 Sudoeste 0 -- -- 61
2019-04-09 09:00:00 7.7 14 Oeste 33 Oeste 0 -- -- 66
2019-04-09 08:00:00 6.7 17 Oeste 32 Oeste 0 -- -- 69
2019-04-09 07:00:00 7.3 19 Oeste 34 Oeste 0 -- -- 67
2019-04-09 06:00:00 7.1 16 Noroeste 44 Oeste 0 -- -- 67
2019-04-09 05:00:00 7.4 22 Sudoeste 42 Oeste 0 -- -- 68
2019-04-09 04:00:00 7.9 22 Oeste 39 Oeste 0 -- -- 63
2019-04-09 03:00:00 7.9 9 Oeste 13 Oeste 0 -- -- 71
2019-04-09 02:00:00 8.1 7 Este 33 Oeste 0 -- -- 73
2019-04-09 01:00:00 9.4 16 Oeste 42 Oeste 0 -- -- 66
2019-04-09 00:00:00 9.6 4 Sudoeste 16 Sudoeste 0 -- -- 73
2019-04-08 23:00:00 10.1 0 Calma 16 Oeste 0.2 -- -- 68
2019-04-08 22:00:00 10.8 4 Oeste 13 Norte 0.4 -- -- 67
2019-04-08 21:00:00 11.9 9 Noroeste 28 Noroeste 0 -- -- 62
2019-04-08 20:00:00 11.9 2 Sudoeste 10 Este 0 -- -- 76
2019-04-08 19:00:00 12.4 5 Este 26 Nordeste 0 -- -- 78
2019-04-08 18:00:00 13.7 7 Nordeste 25 Nordeste 0 -- -- 73
2019-04-08 17:00:00 13.3 7 Noroeste 48 Oeste 1.2 -- -- 75
2019-04-08 16:00:00 14.4 9 Este 24 Noroeste 0 -- -- 58
2019-04-08 15:00:00 14 8 Oeste 24 Oeste 0 -- -- 58
2019-04-08 14:00:00 13.9 9 Noroeste 32 Norte 0 -- -- 58
2019-04-08 13:00:00 13.5 14 Oeste 34 Sur 0 -- -- 58
2019-04-08 12:00:00 12.7 10 Oeste 30 Oeste 0 -- -- 60
2019-04-08 11:00:00 11.8 11 Oeste 24 Sudoeste 0 -- -- 66
2019-04-08 10:00:00 9.7 2 Este 6 Este 0 -- -- 80
2019-04-08 09:00:00 7.5 2 Nordeste 5 Este 0 -- -- 82
2019-04-08 08:00:00 6.5 0 Calma 4 Oeste 0 -- -- 84
2019-04-08 07:00:00 6.4 0 Calma 4 Sur 0.2 -- -- 83
2019-04-08 06:00:00 6.4 0 Calma 8 Sudeste 0.2 -- -- 82
2019-04-08 05:00:00 6.7 4 Sudeste 12 Sudoeste 0 -- -- 79
2019-04-08 04:00:00 7.3 10 Sudoeste 22 Sudoeste 0 -- -- 72
2019-04-08 03:00:00 8.2 13 Sudoeste 23 Sudoeste 0 -- -- 63
2019-04-08 02:00:00 8.6 12 Sudoeste 21 Sudoeste 0 -- -- 54
2019-04-08 01:00:00 7.3 3 Este 8 Sudeste 0 -- -- 58
2019-04-08 00:00:00 8.2 0 Calma 7 Sudoeste 0 -- -- 51
2019-04-07 23:00:00 9.2 4 Sudoeste 6 Oeste 0 -- -- 46
2019-04-07 22:00:00 9.5 4 Noroeste 9 Oeste 0 -- -- 44
2019-04-07 21:00:00 10.1 3 Oeste 16 Oeste 0 -- -- 43
2019-04-07 20:00:00 11.8 6 Oeste 26 Sudoeste 0 -- -- 38
2019-04-07 19:00:00 12.4 10 Sudoeste 27 Oeste 0 -- -- 39
2019-04-07 18:00:00 13 13 Oeste 35 Sudoeste 0 -- -- 38
2019-04-07 17:00:00 12 14 Oeste 36 Noroeste 0 -- -- 40
2019-04-07 16:00:00 11.2 14 Noroeste 36 Noroeste 0 -- -- 45
2019-04-07 15:00:00 10.1 12 Oeste 46 Oeste 0 -- -- 47
2019-04-07 14:00:00 10.4 17 Oeste 47 Norte 0 -- -- 47
2019-04-07 13:00:00 9.5 24 Oeste 50 Oeste 0 -- -- 47
2019-04-07 12:00:00 8.9 19 Oeste 49 Oeste 0 -- -- 50
2019-04-07 11:00:00 7 21 Oeste 46 Noroeste 0 -- -- 58
2019-04-07 10:00:00 5.7 12 Oeste 40 Oeste 0 -- -- 64
2019-04-07 09:00:00 5.2 17 Oeste 42 Oeste 0 -- -- 66
2019-04-07 08:00:00 4.5 13 Oeste 29 Noroeste 0 -- -- 69
2019-04-07 07:00:00 4.9 12 Oeste 36 Noroeste 0 -- -- 68
2019-04-07 06:00:00 5.4 13 Oeste 42 Sudoeste 0 -- -- 64
2019-04-07 05:00:00 5.4 12 Oeste 28 Sudoeste 0 -- -- 65
2019-04-07 04:00:00 5.3 14 Sudoeste 26 Sudoeste 0 -- -- 67
2019-04-07 03:00:00 5.4 7 Noroeste 33 Sudoeste 0 -- -- 69
2019-04-07 02:00:00 5.5 9 Sudoeste 27 Sudoeste 0 -- -- 66
2019-04-07 01:00:00 5.3 12 Oeste 28 Sudoeste 0 -- -- 68
2019-04-07 00:00:00 5.4 6 Sudoeste 36 Sudoeste 0 -- -- 71
2019-04-06 23:00:00 6.1 19 Sudoeste 46 Sur 0 -- -- 68
2019-04-06 22:00:00 6.2 17 Sudoeste 24 Sudoeste 0 -- -- 64
2019-04-06 21:00:00 6.3 15 Sudoeste 62 Oeste 0 -- -- 66
2019-04-06 20:00:00 9 12 Sudoeste 28 Oeste 0 -- -- 50
2019-04-06 19:00:00 9.1 14 Sudoeste 24 Sudoeste 0 -- -- 53
2019-04-06 18:00:00 8.1 13 Sur 44 Sudoeste 0 -- -- 61
2019-04-06 17:00:00 9.4 28 Sudoeste 43 Sudoeste 0 -- -- 48
2019-04-06 16:00:00 11.6 10 Oeste 25 Sudoeste 0 -- -- 39
2019-04-06 15:00:00 10.9 17 Sudoeste 35 Sudoeste 0 -- -- 41
2019-04-06 14:00:00 9.2 23 Sudoeste 41 Sudoeste 0 -- -- 45
2019-04-06 13:00:00 8.9 22 Sudoeste 37 Oeste 0 -- -- 47
2019-04-06 12:00:00 8.6 17 Sudoeste 39 Oeste 0 -- -- 50
2019-04-06 11:00:00 7.5 21 Sudoeste 40 Sudoeste 0 -- -- 52
2019-04-06 10:00:00 7.1 21 Sudoeste 41 Sudoeste 0 -- -- 55
2019-04-06 09:00:00 5.8 17 Sudoeste 34 Sur 0 -- -- 58
2019-04-06 08:00:00 4.7 23 Sudoeste 39 Sudoeste 0 -- -- 62
2019-04-06 07:00:00 4.6 13 Sudoeste 30 Oeste 0 -- -- 61
2019-04-06 06:00:00 4.7 11 Sudoeste 19 Sur 0 -- -- 62
2019-04-06 05:00:00 5 8 Oeste 22 Sudoeste 0 -- -- 59
2019-04-06 04:00:00 5.5 11 Sudoeste 29 Sur 0 -- -- 61
2019-04-06 03:00:00 5.6 19 Sudoeste 41 Sudoeste 0 -- -- 60
2019-04-06 02:00:00 5.5 22 Sudoeste 39 Sudoeste 0 -- -- 63
2019-04-06 01:00:00 5.6 18 Sudoeste 38 Sudoeste 0 -- -- 64
2019-04-06 00:00:00 5.8 19 Sudoeste 40 Sudoeste 0 -- -- 62
2019-04-05 23:00:00 7.2 24 Sudoeste 41 Oeste 0 -- -- 59
2019-04-05 22:00:00 8.5 24 Sudoeste 36 Sudoeste 0 -- -- 55
2019-04-05 21:00:00 8.2 6 Este 13 Este 0 -- -- 65
2019-04-05 20:00:00 8.5 3 Norte 29 Sudoeste 0 -- -- 63
2019-04-05 19:00:00 8.8 18 Sudoeste 30 Sudoeste 0 -- -- 57
2019-04-05 18:00:00 9.5 18 Sudoeste 36 Sudoeste 0 -- -- 57
2019-04-05 17:00:00 10 16 Sudoeste 39 Oeste 0.8 -- -- 67
2019-04-05 16:00:00 10.5 12 Sudoeste 23 Este 1.6 -- -- 68
2019-04-05 15:00:00 13 9 Sudeste 20 Sur 0 -- -- 47
2019-04-05 14:00:00 13.3 9 Sudeste 19 Sur 0 -- -- 46
2019-04-05 13:00:00 12.9 6 Sudeste 20 Este 0 -- -- 46
2019-04-05 12:00:00 10.6 9 Este 15 Nordeste 0 -- -- 53
2019-04-05 11:00:00 8.8 3 Sur 14 Sur 0 -- -- 55
2019-04-05 10:00:00 7.9 4 Sudoeste 15 Sudeste 0 -- -- 60
2019-04-05 09:00:00 7 0 Calma 7 Este 0 -- -- 65
2019-04-05 08:00:00 6.4 4 Sudeste 8 Este 0 -- -- 72
2019-04-05 07:00:00 6.3 0 Calma 19 Sur 0 -- -- 69
2019-04-05 06:00:00 6.6 9 Sur 19 Sur 0 -- -- 62
2019-04-05 05:00:00 6.6 5 Sur 14 Este 0 -- -- 62
2019-04-05 04:00:00 6 4 Sur 10 Sudoeste 0 -- -- 63
2019-04-05 03:00:00 5.8 11 Sur 19 Sur 0 -- -- 67
2019-04-05 02:00:00 5.6 7 Sur 19 Sudeste 0 -- -- 71
2019-04-05 01:00:00 5.9 8 Sur 16 Sur 0 -- -- 67
2019-04-05 00:00:00 5.9 5 Sur 12 Sur 0 -- -- 70
2019-04-04 23:00:00 6.5 4 Sudoeste 14 Este 0 -- -- 66
2019-04-04 22:00:00 7.1 8 Este 17 Este 0 -- -- 61
2019-04-04 21:00:00 8.5 8 Sudeste 22 Este 0 -- -- 51
2019-04-04 20:00:00 10.5 7 Nordeste 23 Este 0 -- -- 39
2019-04-04 19:00:00 11.7 17 Este 24 Este 0 -- -- 36
2019-04-04 18:00:00 13.7 8 Sudoeste 15 Sudoeste 0 -- -- 30
2019-04-04 17:00:00 13.8 6 Noroeste 24 Oeste 0 -- -- 32
2019-04-04 16:00:00 12.4 12 Sudoeste 28 Oeste 0 -- -- 29
2019-04-04 15:00:00 11.2 9 Sudoeste 26 Sudoeste 0 -- -- 39
2019-04-04 14:00:00 10 7 Sudoeste 28 Sur 0 -- -- 44
2019-04-04 13:00:00 7.9 9 Oeste 25 Oeste 0 -- -- 48
2019-04-04 12:00:00 6.6 8 Noroeste 29 Oeste 0 -- -- 48
2019-04-04 11:00:00 5.2 9 Noroeste 33 Oeste 0 -- -- 53
2019-04-04 10:00:00 4.2 4 Sudoeste 20 Oeste 0 -- -- 62
2019-04-04 09:00:00 2.7 2 Sur 5 Nordeste 0 -- -- 73
2019-04-04 08:00:00 0.8 0 Calma 3 Este 0 -- -- 79
2019-04-04 07:00:00 0.8 0 Calma 6 Este 0 -- -- 77
2019-04-04 06:00:00 0.9 3 Nordeste 9 Oeste 0 -- -- 77
2019-04-04 05:00:00 1.5 2 Oeste 18 Oeste 0 -- -- 73
2019-04-04 04:00:00 1.9 7 Oeste 21 Oeste 0 -- -- 71
2019-04-04 03:00:00 2.7 8 Oeste 21 Oeste 0 -- -- 73
2019-04-04 02:00:00 2.4 5 Oeste 24 Oeste 0 -- -- 78
2019-04-04 01:00:00 3 10 Oeste 24 Oeste 0 -- -- 76
2019-04-04 00:00:00 3 13 Oeste 35 Oeste 0 -- -- 76
2019-04-03 23:00:00 3 20 Oeste 42 Sudoeste 0 -- -- 79
2019-04-03 22:00:00 2.9 17 Oeste 55 Oeste 0.4 -- -- 87
2019-04-03 21:00:00 3.9 8 Noroeste 37 Noroeste 0.2 -- -- 86
2019-04-03 20:00:00 4 8 Oeste 19 Norte 0.6 -- -- 87
2019-04-03 19:00:00 4.5 4 Oeste 18 Nordeste 0 -- -- 87
2019-04-03 18:00:00 5.1 3 Este 19 Nordeste 0 -- -- 87
2019-04-03 17:00:00 5.5 6 Sudeste 32 Oeste 0.4 -- -- 89
2019-04-03 16:00:00 6.4 15 Oeste 31 Noroeste 0.4 -- -- 87
2019-04-03 15:00:00 7.7 5 Este 15 Este 0 -- -- 89
2019-04-03 14:00:00 8.1 4 Este 26 Nordeste 0.4 -- -- 86
2019-04-03 13:00:00 8.7 13 Nordeste 28 Este 0 -- -- 79
2019-04-03 12:00:00 8.3 11 Nordeste 25 Nordeste 0 -- -- 80
2019-04-03 11:00:00 8.4 8 Nordeste 19 Norte 0 -- -- 80
2019-04-03 10:00:00 8.5 8 Norte 18 Nordeste 0 -- -- 80
2019-04-03 09:00:00 8.1 2 Este 7 Sudeste 0 -- -- 75
2019-04-03 08:00:00 8.5 0 Calma 11 Sudoeste 0 -- -- 72
2019-04-03 07:00:00 8.4 3 Sudoeste 11 Oeste 0 -- -- 73
2019-04-03 06:00:00 8.2 5 Sudeste 9 Sudeste 0 -- -- 75
2019-04-03 05:00:00 8.4 0 Calma 5 Este 0 -- -- 74
2019-04-03 04:00:00 8.8 3 Sur 5 Sudeste 0 -- -- 74
2019-04-03 03:00:00 8.7 3 Sudeste 8 Nordeste 0 -- -- 74
2019-04-03 02:00:00 8.7 3 Sudeste 12 Este 0 -- -- 76
2019-04-03 01:00:00 8.8 3 Sudeste 8 Sudeste 0 -- -- 76
2019-04-03 00:00:00 9.4 3 Sur 6 Sudeste 0 -- -- 74
2019-04-02 23:00:00 9.5 6 Sur 10 Sur 0 -- -- 78
2019-04-02 22:00:00 9.8 2 Sudeste 15 Sudeste 0 -- -- 78
2019-04-02 21:00:00 10.4 8 Sur 17 Sudoeste 0 -- -- 75
2019-04-02 20:00:00 10.7 6 Sudoeste 44 Noroeste 0.2 -- -- 70
2019-04-02 19:00:00 12.5 5 Sudoeste 24 Oeste 0 -- -- 68
2019-04-02 18:00:00 14.6 3 Sudoeste 21 Este 0 -- -- 68
2019-04-02 17:00:00 15.2 12 Este 23 Este 0 -- -- 61
2019-04-02 16:00:00 15.3 9 Este 22 Este 0 -- -- 62
2019-04-02 15:00:00 14.6 10 Este 23 Nordeste 0 -- -- 67
2019-04-02 14:00:00 14.1 6 Este 13 Este 0 -- -- 68
2019-04-02 13:00:00 11.4 3 Sur 15 Noroeste 0 -- -- 79
2019-04-02 12:00:00 11.4 9 Noroeste 25 Oeste 0 -- -- 74
2019-04-02 11:00:00 12.8 10 Oeste 20 Noroeste 0 -- -- 64
2019-04-02 10:00:00 11.5 3 Sudeste 9 Noroeste 0 -- -- 72
2019-04-02 09:00:00 9.8 4 Oeste 9 Oeste 0 -- -- 75
2019-04-02 08:00:00 8.9 3 Este 6 Este 0 -- -- 83
2019-04-02 07:00:00 8.6 4 Este 6 Este 0 -- -- 84
2019-04-02 06:00:00 8.6 2 Este 3 Este 0 -- -- 84
2019-04-02 05:00:00 8.7 0 Calma 4 Este 0 -- -- 83
2019-04-02 04:00:00 8.4 3 Este 5 Este 0 -- -- 85
2019-04-02 03:00:00 8.2 2 Sudeste 6 Sur 0 -- -- 87
2019-04-02 02:00:00 8.1 3 Este 6 Este 0 -- -- 89
2019-04-02 01:00:00 8.5 4 Este 7 Nordeste 0 -- -- 89
2019-04-02 00:00:00 9.2 0 Calma 5 Este 0 -- -- 85
2019-04-01 23:00:00 9.5 4 Sudeste 6 Sur 0 -- -- 80
2019-04-01 22:00:00 10.1 2 Sur 4 Sur 0 -- -- 79
2019-04-01 21:00:00 10.9 4 Sudeste 8 Sudoeste 0 -- -- 71
2019-04-01 20:00:00 11.1 5 Sudoeste 8 Sudoeste 0 -- -- 67
2019-04-01 19:00:00 11.6 5 Sudoeste 13 Sur 0 -- -- 70
2019-04-01 18:00:00 12.3 8 Sur 18 Sur 0 -- -- 67
2019-04-01 17:00:00 13.3 8 Sur 18 Sur 0 -- -- 60
2019-04-01 16:00:00 12.5 10 Sur 21 Este 0 -- -- 66
2019-04-01 15:00:00 11.3 11 Sudeste 18 Sudeste 0 -- -- 82
2019-04-01 14:00:00 10.7 3 Este 7 Sudeste 0.2 -- -- 84
2019-04-01 13:00:00 11 4 Sur 8 Sur 0 -- -- 81
2019-04-01 12:00:00 8.5 2 Sudeste 5 Sudeste 0 -- -- 89
2019-04-01 11:00:00 7.7 2 Sur 4 Sur 0.4 -- -- 95
2019-04-01 10:00:00 6.6 0 Calma 3 Este 0.2 -- -- 96
2019-04-01 09:00:00 6.3 0 Calma 8 Norte 0.2 -- -- 96
2019-04-01 08:00:00 6.1 0 Calma 8 Nordeste 0.4 -- -- 95
2019-04-01 07:00:00 6.3 2 Nordeste 5 Nordeste 0.4 -- -- 95
2019-04-01 06:00:00 6.2 0 Calma 9 Norte 0.2 -- -- 94
2019-04-01 05:00:00 6.2 4 Norte 10 Norte 0.4 -- -- 94
2019-04-01 04:00:00 6.1 3 Norte 10 Norte 0.6 -- -- 93
2019-04-01 03:00:00 6.3 3 Norte 9 Norte 0.4 -- -- 93
2019-04-01 02:00:00 6.8 0 Calma 4 Noroeste 0.8 -- -- 93
2019-04-01 01:00:00 6.9 2 Nordeste 8 Nordeste 0.6 -- -- 93
2019-04-01 00:00:00 6.9 4 Este 12 Este 0.4 -- -- 90
2019-03-31 23:00:00 7.4 0 Calma 7 Este 0.2 -- -- 94
2019-03-31 22:00:00 7.2 4 Nordeste 10 Norte 0.6 -- -- 95
2019-03-31 21:00:00 7.1 4 Norte 12 Nordeste 0.6 -- -- 95
2019-03-31 20:00:00 7.1 5 Nordeste 14 Este 0.8 -- -- 94
2019-03-31 19:00:00 7.1 4 Este 18 Sur 2 -- -- 94
2019-03-31 18:00:00 7 4 Nordeste 16 Este 1.8 -- -- 93
2019-03-31 17:00:00 7.1 6 Nordeste 19 Este 2 -- -- 92
2019-03-31 16:00:00 7.9 6 Norte 14 Nordeste 0.8 -- -- 90
2019-03-31 15:00:00 8.6 2 Sur 5 Oeste 0.4 -- -- 88
2019-03-31 14:00:00 7.8 3 Este 9 Este 0.6 -- -- 83
2019-03-31 13:00:00 8.4 7 Este 13 Este 0 -- -- 76
2019-03-31 12:00:00 7.3 4 Sudeste 9 Norte 0 -- -- 75
2019-03-31 11:00:00 6.7 0 Calma 4 Este 0 -- -- 71
2019-03-31 10:00:00 6.6 2 Este 5 Sudoeste 0 -- -- 76
2019-03-31 09:00:00 6.1 0 Calma 11 Sudoeste 0 -- -- 72
2019-03-31 08:00:00 4.6 3 Sudoeste 8 Sudeste 0 -- -- 82
2019-03-31 07:00:00 4.7 0 Calma 4 Sur 0 -- -- 82
2019-03-31 06:00:00 4.9 0 Calma 5 Sur 0 -- -- 82
2019-03-31 05:00:00 5.2 2 Este 4 Este 0 -- -- 82
2019-03-31 03:00:00 6.1 0 Calma 3 Este 0 -- -- 79
2019-03-31 01:00:00 5.9 0 Calma 9 Sudoeste 0 -- -- 79
2019-03-31 00:00:00 6.6 5 Sudoeste 12 Sur 0 -- -- 76
2019-03-30 23:00:00 7.4 3 Sur 10 Sur 0 -- -- 74
2019-03-30 22:00:00 8 5 Sur 17 Sudeste 0 -- -- 72
2019-03-30 21:00:00 8.5 8 Sudeste 19 Sudeste 0 -- -- 71
2019-03-30 20:00:00 9.4 9 Este 21 Este 0 -- -- 67
2019-03-30 19:00:00 11.6 9 Sudeste 26 Sudeste 0 -- -- 59
2019-03-30 18:00:00 14.4 10 Sudeste 21 Sudeste 0 -- -- 49
2019-03-30 17:00:00 16.5 8 Este 29 Este 0 -- -- 38
2019-03-30 16:00:00 16.8 9 Nordeste 25 Nordeste 0 -- -- 32
2019-03-30 15:00:00 16.8 15 Este 35 Este 0 -- -- 29
2019-03-30 14:00:00 15.9 14 Este 32 Este 0 -- -- 31
2019-03-30 13:00:00 15.9 11 Sudeste 25 Este 0 -- -- 31
2019-03-30 12:00:00 14.9 5 Sudeste 21 Este 0 -- -- 33
2019-03-30 11:00:00 12.8 4 Sudoeste 16 Nordeste 0 -- -- 35
2019-03-30 10:00:00 10.3 3 Sudeste 11 Este 0 -- -- 39
2019-03-30 09:00:00 7.3 6 Este 12 Este 0 -- -- 49
2019-03-30 08:00:00 4.8 3 Este 8 Nordeste 0 -- -- 56
2019-03-30 07:00:00 3 5 Este 8 Este 0 -- -- 63
2019-03-30 06:00:00 3.2 0 Calma 9 Sudeste 0 -- -- 63
2019-03-30 05:00:00 3.9 2 Este 7 Sur 0 -- -- 63
2019-03-30 04:00:00 4.4 4 Sudeste 8 Sudeste 0 -- -- 62
2019-03-30 03:00:00 6.4 4 Sudoeste 11 Sudoeste 0 -- -- 51
2019-03-30 02:00:00 7.1 5 Sur 13 Sudeste 0 -- -- 50
2019-03-30 01:00:00 7.3 8 Sudeste 17 Sur 0 -- -- 52
2019-03-30 00:00:00 7.4 8 Sur 15 Sur 0 -- -- 54
2019-03-29 23:00:00 7.9 8 Sur 18 Sudeste 0 -- -- 55
2019-03-29 22:00:00 7.8 11 Sur 20 Sur 0 -- -- 57
2019-03-29 21:00:00 8.4 10 Sur 18 Sudeste 0 -- -- 53
2019-03-29 20:00:00 9.4 10 Sudeste 26 Sudeste 0 -- -- 49
2019-03-29 19:00:00 11.2 11 Sudeste 27 Sur 0 -- -- 47
2019-03-29 18:00:00 13.2 12 Este 30 Sudeste 0 -- -- 41
2019-03-29 17:00:00 14.5 18 Este 35 Sudeste 0 -- -- 37
2019-03-29 16:00:00 15.4 18 Este 38 Este 0 -- -- 36
2019-03-29 15:00:00 16.1 14 Sudeste 32 Este 0 -- -- 35
2019-03-29 14:00:00 16.3 19 Este 36 Este 0 -- -- 35
2019-03-29 13:00:00 15.7 14 Sudeste 39 Este 0 -- -- 33
2019-03-29 12:00:00 15.3 16 Este 37 Este 0 -- -- 32
2019-03-29 11:00:00 14 22 Este 37 Este 0 -- -- 35
2019-03-29 10:00:00 12 5 Este 9 Este 0 -- -- 37
2019-03-29 09:00:00 8.3 2 Sudeste 12 Este 0 -- -- 45
2019-03-29 08:00:00 5.8 5 Este 9 Este 0 -- -- 51
2019-03-29 07:00:00 4.1 5 Este 7 Sudeste 0 -- -- 56
2019-03-29 06:00:00 4.1 4 Sudeste 10 Sudeste 0 -- -- 58
2019-03-29 05:00:00 4.3 4 Este 8 Sudeste 0 -- -- 59
2019-03-29 04:00:00 4.9 4 Este 9 Este 0 -- -- 58
2019-03-29 03:00:00 5.4 4 Sudeste 9 Sudeste 0 -- -- 58
2019-03-29 02:00:00 5.7 4 Sudeste 9 Sur 0 -- -- 57
2019-03-29 01:00:00 6.6 7 Sudeste 12 Sur 0 -- -- 54
2019-03-29 00:00:00 7.4 5 Sudeste 12 Sudeste 0 -- -- 52
2019-03-28 23:00:00 8.2 5 Sur 9 Sudoeste 0 -- -- 48
2019-03-28 22:00:00 8.9 2 Sur 6 Este 0 -- -- 46
2019-03-28 21:00:00 9.9 3 Sudeste 15 Este 0 -- -- 43
2019-03-28 20:00:00 11.4 9 Sudeste 18 Este 0 -- -- 39
2019-03-28 19:00:00 14 8 Este 18 Este 0 -- -- 35
2019-03-28 18:00:00 16.1 9 Este 18 Este 0 -- -- 31
2019-03-28 17:00:00 17.5 9 Sudeste 22 Este 0 -- -- 27
2019-03-28 16:00:00 17.1 6 Norte 32 Este 0 -- -- 28
2019-03-28 15:00:00 16.6 13 Este 32 Este 0 -- -- 32
2019-03-28 14:00:00 15.2 11 Este 31 Este 0 -- -- 34
2019-03-28 13:00:00 14.7 15 Este 28 Este 0 -- -- 37
2019-03-28 12:00:00 13.8 5 Este 16 Este 0 -- -- 38
2019-03-28 11:00:00 11.8 9 Este 18 Este 0 -- -- 42
2019-03-28 10:00:00 9.2 2 Oeste 10 Este 0 -- -- 47
2019-03-28 09:00:00 6.8 3 Este 9 Este 0 -- -- 47
2019-03-28 08:00:00 4.5 6 Este 8 Nordeste 0 -- -- 51
2019-03-28 07:00:00 3.1 0 Calma 6 Sudeste 0 -- -- 52
2019-03-28 06:00:00 3.2 3 Este 8 Sudeste 0 -- -- 52
2019-03-28 05:00:00 3.7 2 Sudeste 9 Sudeste 0 -- -- 51
2019-03-28 04:00:00 4.8 2 Este 4 Sur 0 -- -- 48
2019-03-28 03:00:00 6.1 2 Sudoeste 8 Sudoeste 0 -- -- 45
2019-03-28 02:00:00 6.1 2 Este 16 Oeste 0 -- -- 45
2019-03-28 01:00:00 7.8 3 Sudoeste 8 Noroeste 0 -- -- 41
2019-03-28 00:00:00 8.6 3 Sudoeste 21 Oeste 0 -- -- 38
2019-03-27 23:00:00 9.8 14 Oeste 26 Oeste 0 -- -- 32
2019-03-27 22:00:00 10 0 Calma 3 Sur 0 -- -- 41
2019-03-27 21:00:00 10.9 4 Este 8 Este 0 -- -- 39
2019-03-27 20:00:00 12.7 4 Nordeste 8 Norte 0 -- -- 26
2019-03-27 19:00:00 14.3 3 Nordeste 19 Este 0 -- -- 25
2019-03-27 18:00:00 15.7 7 Este 20 Este 0 -- -- 25
2019-03-27 17:00:00 16.1 7 Este 25 Este 0 -- -- 23
2019-03-27 16:00:00 16.5 13 Este 37 Este 0.4 -- -- 22
2019-03-27 15:00:00 17.5 16 Este 33 Este 0 -- -- 25
2019-03-27 14:00:00 16.9 5 Sudoeste 18 Norte 0 -- -- 25
2019-03-27 13:00:00 15.2 7 Norte 22 Nordeste 0 -- -- 26
2019-03-27 12:00:00 13.9 9 Este 18 Nordeste 0 -- -- 31
2019-03-27 11:00:00 12.2 9 Este 17 Este 0 -- -- 38
2019-03-27 10:00:00 9.5 5 Este 10 Este 0 -- -- 41
2019-03-27 09:00:00 6.3 3 Sudeste 10 Este 0 -- -- 49
2019-03-27 08:00:00 3.6 4 Este 12 Sudeste 0 -- -- 55
2019-03-27 07:00:00 1.9 4 Este 9 Este 0 -- -- 61
2019-03-27 06:00:00 2.5 4 Este 9 Este 0 -- -- 61
2019-03-27 05:00:00 3 4 Este 9 Nordeste 0 -- -- 63
2019-03-27 04:00:00 3.9 2 Este 7 Sudoeste 0 -- -- 67
2019-03-27 03:00:00 4.8 3 Este 5 Este 0 -- -- 76
2019-03-27 02:00:00 5.2 3 Sur 7 Este 0 -- -- 83
2019-03-27 01:00:00 6.2 3 Este 7 Sur 0 -- -- 79
2019-03-27 00:00:00 7 2 Sudoeste 6 Este 0 -- -- 77
2019-03-26 23:00:00 7.9 2 Oeste 13 Sudoeste 0 -- -- 72
2019-03-26 22:00:00 8.3 9 Sudoeste 15 Sur 0 -- -- 70
2019-03-26 21:00:00 9.4 6 Sudeste 13 Sur 0 -- -- 58
2019-03-26 20:00:00 12.5 3 Norte 8 Este 0 -- -- 25
2019-03-26 19:00:00 14.2 4 Este 16 Sudeste 0 -- -- 23
2019-03-26 18:00:00 16 6 Este 22 Este 0 -- -- 20
2019-03-26 17:00:00 16.7 5 Este 26 Este 0 -- -- 20
2019-03-26 16:00:00 17.3 6 Este 33 Este 0 -- -- 21
2019-03-26 15:00:00 16.4 6 Este 27 Este 0 -- -- 26
2019-03-26 14:00:00 15.1 15 Este 33 Este 0 -- -- 28
2019-03-26 13:00:00 14.4 14 Este 27 Este 0 -- -- 36
2019-03-26 12:00:00 13.1 17 Este 28 Este 0 -- -- 42
2019-03-26 11:00:00 11.8 3 Sur 17 Oeste 0 -- -- 45
2019-03-26 10:00:00 8.5 5 Oeste 19 Oeste 0 -- -- 54
2019-03-26 09:00:00 6.7 6 Oeste 18 Norte 0 -- -- 60
2019-03-26 08:00:00 5.6 0 Calma 7 Sur 0 -- -- 65
2019-03-26 07:00:00 4.5 2 Sudoeste 26 Oeste 0 -- -- 69
2019-03-26 06:00:00 4.8 6 Sudoeste 37 Oeste 0 -- -- 69
2019-03-26 05:00:00 5 19 Oeste 44 Oeste 0 -- -- 69
2019-03-26 04:00:00 4.9 8 Nordeste 41 Noroeste 0 -- -- 70
2019-03-26 03:00:00 5.1 13 Oeste 32 Oeste 0 -- -- 68
2019-03-26 02:00:00 5.3 10 Este 30 Nordeste 0 -- -- 66
2019-03-26 01:00:00 5.7 7 Nordeste 28 Oeste 0 -- -- 65
2019-03-26 00:00:00 6.2 11 Oeste 32 Oeste 0 -- -- 63
2019-03-25 23:00:00 7.1 13 Oeste 36 Noroeste 0 -- -- 59
2019-03-25 22:00:00 8.2 8 Noroeste 26 Oeste 0 -- -- 53
2019-03-25 21:00:00 9.4 10 Oeste 32 Noroeste 0 -- -- 48
2019-03-25 20:00:00 11.2 9 Oeste 25 Oeste 0 -- -- 41
2019-03-25 19:00:00 12.9 15 Oeste 32 Oeste 0 -- -- 36
2019-03-25 18:00:00 15.4 11 Noroeste 33 Oeste 0 -- -- 32
2019-03-25 17:00:00 17 12 Noroeste 37 Noroeste 0 -- -- 29
2019-03-25 16:00:00 16.8 14 Noroeste 33 Oeste 0 -- -- 32
2019-03-25 15:00:00 16.1 19 Oeste 40 Oeste 0 -- -- 34
2019-03-25 14:00:00 15.9 17 Noroeste 38 Noroeste 0 -- -- 39
2019-03-25 13:00:00 14.5 18 Oeste 43 Oeste 0 -- -- 44
2019-03-25 12:00:00 13.5 13 Noroeste 35 Oeste 0 -- -- 49
2019-03-25 11:00:00 12.7 15 Noroeste 35 Noroeste 0 -- -- 48
2019-03-25 10:00:00 11.6 11 Oeste 37 Noroeste 0 -- -- 46
2019-03-25 09:00:00 9.8 8 Noroeste 26 Noroeste 0 -- -- 49
2019-03-25 08:00:00 6.6 6 Sudeste 15 Este 0 -- -- 54
2019-03-25 07:00:00 5.9 5 Este 8 Este 0 -- -- 55
2019-03-25 06:00:00 6.5 5 Este 10 Sudeste 0 -- -- 52
2019-03-25 05:00:00 7.4 4 Este 12 Sudeste 0 -- -- 50
2019-03-25 04:00:00 8.2 6 Este 28 Oeste 0 -- -- 48
2019-03-25 03:00:00 9 4 Este 9 Este 0 -- -- 45
2019-03-25 02:00:00 9.6 4 Sudeste 11 Este 0 -- -- 43
2019-03-25 01:00:00 10.1 5 Este 16 Oeste 0 -- -- 42
2019-03-25 00:00:00 12.2 10 Oeste 19 Oeste 0 -- -- 36
2019-03-24 23:00:00 11.2 5 Este 9 Sur 0 -- -- 40
2019-03-24 22:00:00 13.5 5 Sudeste 9 Sudoeste 0 -- -- 35
2019-03-24 21:00:00 14.3 4 Sudoeste 11 Oeste 0 -- -- 34
2019-03-24 20:00:00 15.7 3 Este 13 Norte 0 -- -- 31
2019-03-24 19:00:00 17.7 4 Este 15 Este 0 -- -- 26
2019-03-24 18:00:00 19.6 8 Este 17 Sur 0 -- -- 23
2019-03-24 17:00:00 20.2 9 Norte 26 Este 0 -- -- 21
2019-03-24 16:00:00 20.6 4 Sudeste 32 Nordeste 0 -- -- 21
2019-03-24 15:00:00 21 12 Nordeste 32 Este 0 -- -- 21
2019-03-24 14:00:00 20.4 14 Nordeste 33 Este 0 -- -- 21
2019-03-24 13:00:00 20.4 9 Norte 22 Nordeste 0 -- -- 21
2019-03-24 12:00:00 19.1 5 Norte 15 Este 0 -- -- 21
2019-03-24 11:00:00 17 3 Sur 7 Sudeste 0 -- -- 27
2019-03-24 10:00:00 13.5 4 Este 7 Nordeste 0 -- -- 35
2019-03-24 09:00:00 9.7 0 Calma 8 Nordeste 0 -- -- 44
2019-03-24 08:00:00 6.7 7 Este 9 Nordeste 0 -- -- 47
2019-03-24 07:00:00 5.3 5 Este 10 Este 0 -- -- 50
2019-03-24 06:00:00 5.1 9 Este 11 Nordeste 0 -- -- 52
2019-03-24 05:00:00 5.6 8 Este 10 Este 0 -- -- 53
2019-03-24 04:00:00 6.2 9 Este 10 Nordeste 0 -- -- 53
2019-03-24 03:00:00 6.7 6 Este 8 Este 0 -- -- 52
2019-03-24 02:00:00 7.3 5 Este 8 Este 0 -- -- 52
2019-03-24 01:00:00 8.4 6 Este 10 Nordeste 0 -- -- 49
2019-03-24 00:00:00 9.8 4 Este 6 Sudeste 0 -- -- 45
2019-03-23 23:00:00 10.5 0 Calma 8 Sur 0 -- -- 44
2019-03-23 22:00:00 11.5 4 Sur 9 Sudoeste 0 -- -- 41
2019-03-23 21:00:00 12.8 3 Sudoeste 9 Sur 0 -- -- 38
2019-03-23 20:00:00 14.5 3 Sur 12 Nordeste 0 -- -- 35
2019-03-23 19:00:00 16 5 Sudeste 20 Este 0 -- -- 32
2019-03-23 18:00:00 18 10 Este 21 Sudeste 0 -- -- 27
2019-03-23 17:00:00 18.6 5 Nordeste 23 Este 0 -- -- 31
2019-03-23 16:00:00 18.9 5 Este 27 Sudeste 0 -- -- 31
2019-03-23 15:00:00 18.9 7 Nordeste 34 Este 0 -- -- 32
2019-03-23 14:00:00 18.6 8 Sudoeste 36 Este 0 -- -- 33
2019-03-23 13:00:00 17.7 5 Nordeste 23 Este 0 -- -- 33
2019-03-23 12:00:00 16.5 7 Norte 19 Este 0 -- -- 37
2019-03-23 11:00:00 15.1 4 Norte 11 Nordeste 0 -- -- 41
2019-03-23 10:00:00 12.3 3 Este 8 Este 0 -- -- 52
2019-03-23 09:00:00 8.4 3 Este 8 Nordeste 0 -- -- 60
2019-03-23 08:00:00 5.5 5 Este 8 Este 0 -- -- 68
2019-03-23 07:00:00 4.3 6 Este 8 Nordeste 0 -- -- 71
2019-03-23 06:00:00 4.9 5 Este 9 Este 0 -- -- 69
2019-03-23 05:00:00 5 5 Nordeste 8 Este 0 -- -- 69
2019-03-23 04:00:00 5.6 6 Este 9 Este 0 -- -- 67
2019-03-23 03:00:00 6.2 4 Este 6 Este 0 -- -- 65
2019-03-23 02:00:00 6.9 3 Este 7 Este 0 -- -- 62
2019-03-23 01:00:00 7.4 5 Este 9 Este 0 -- -- 61
2019-03-23 00:00:00 8.5 3 Sur 8 Este 0 -- -- 57
2019-03-22 23:00:00 9.4 2 Oeste 7 Sudeste 0 -- -- 54
2019-03-22 22:00:00 11 0 Calma 4 Sudoeste 0 -- -- 49
2019-03-22 21:00:00 11.6 4 Noroeste 6 Oeste 0 -- -- 47
2019-03-22 20:00:00 12.8 3 Sudeste 14 Norte 0 -- -- 44
2019-03-22 19:00:00 14.1 6 Nordeste 18 Norte 0 -- -- 41
2019-03-22 18:00:00 15.9 6 Norte 30 Este 0 -- -- 37
2019-03-22 17:00:00 16.5 8 Este 31 Este 0 -- -- 36
2019-03-22 16:00:00 16.3 16 Este 34 Este 0 -- -- 36
2019-03-22 15:00:00 16.8 9 Norte 21 Este 0 -- -- 36
2019-03-22 14:00:00 15.9 6 Sudeste 22 Este 0 -- -- 35
2019-03-22 13:00:00 14 8 Nordeste 23 Nordeste 0 -- -- 38
2019-03-22 12:00:00 13 6 Norte 19 Norte 0 -- -- 38
2019-03-22 11:00:00 11.6 4 Sudeste 9 Sudeste 0 -- -- 42
2019-03-22 10:00:00 7.8 0 Calma 5 Este 0 -- -- 52
2019-03-22 09:00:00 6.1 2 Sudeste 7 Este 0 -- -- 56
2019-03-22 08:00:00 3.5 4 Nordeste 6 Este 0 -- -- 61
2019-03-22 07:00:00 1.9 4 Este 7 Nordeste 0 -- -- 66
2019-03-22 06:00:00 2.1 4 Este 6 Este 0 -- -- 65
2019-03-22 05:00:00 2.4 3 Este 12 Este 0 -- -- 65
2019-03-22 04:00:00 2.6 4 Este 6 Este 0 -- -- 65
2019-03-22 03:00:00 3.3 5 Este 6 Este 0 -- -- 64
2019-03-22 02:00:00 3.7 5 Este 6 Este 0 -- -- 64
2019-03-22 01:00:00 4.3 4 Este 5 Este 0 -- -- 61
2019-03-22 00:00:00 5.3 3 Sudeste 5 Este 0 -- -- 59
2019-03-21 23:00:00 5.9 4 Este 5 Este 0 -- -- 58
2019-03-21 22:00:00 7.1 0 Calma 4 Sudeste 0 -- -- 54
2019-03-21 21:00:00 7.8 4 Sudoeste 7 Sur 0 -- -- 53
2019-03-21 20:00:00 8.8 3 Sudeste 18 Este 0 -- -- 47
2019-03-21 19:00:00 11.3 4 Este 22 Este 0 -- -- 36
2019-03-21 18:00:00 12.7 8 Este 31 Este 0 -- -- 34
2019-03-21 17:00:00 13.2 17 Este 32 Este 0 -- -- 33
2019-03-21 16:00:00 13.9 4 Sudeste 35 Este 0 -- -- 33
2019-03-21 15:00:00 14.1 8 Este 23 Nordeste 0 -- -- 31
2019-03-21 14:00:00 13.8 5 Nordeste 30 Nordeste 0 -- -- 29
2019-03-21 13:00:00 13.3 4 Sur 15 Sudeste 0 -- -- 36
2019-03-21 12:00:00 11.2 8 Este 19 Este 0 -- -- 43
2019-03-21 11:00:00 9.4 6 Este 14 Este 0 -- -- 49
2019-03-21 10:00:00 6.7 4 Sudeste 11 Este 0 -- -- 54
2019-03-21 09:00:00 3.9 6 Este 9 Este 0 -- -- 60
2019-03-21 08:00:00 1.5 3 Este 6 Este 0 -- -- 67
2019-03-21 07:00:00 0.2 2 Sudeste 7 Este 0 -- -- 71
2019-03-21 06:00:00 0.9 0 Calma 6 Noroeste 0 -- -- 68
2019-03-21 05:00:00 1.7 0 Calma 4 Noroeste 0 -- -- 65
2019-03-21 04:00:00 1.7 3 Oeste 17 Noroeste 0 -- -- 68
2019-03-21 03:00:00 2.8 3 Oeste 15 Oeste 0 -- -- 66
2019-03-21 02:00:00 4 5 Noroeste 22 Oeste 0 -- -- 62
2019-03-21 01:00:00 4.4 2 Noroeste 9 Oeste 0 -- -- 60
2019-03-21 00:00:00 4.7 0 Calma 8 Noroeste 0 -- -- 64